Mountain, Texas
Current Conditions -  °F | °C
As of 5:55 PM on Saturday 25 Oct 2014 (Local Time) from KGOP Reporting Station
Clear Clear  
Wind Chill: 86°   Ceiling: Unl
Heat Index: 86°   Visibility: 10mi
Dew Point: 57°   Wind: 0mph
Humidity: 37%   Direction: NA
Pressure: 30.09"   Gusts: NA
Location:  31.392°N, 97.7452°W
Report Text: KGOP 252255Z AUTO 00000KT 10SM CLR 30/14 A3009 RMK AO2
Loading
Personal Weather Stations






























Interactive Weather Map
Tropical Storm Tracking
New forecast layout! Learn more

10-Day Weather Forecast

Advertisements
Track Severe Weather on mobile